sensor_id;sensor_type;location;lat;lon;timestamp;P1;durP1;ratioP1;P2;durP2;ratioP2
25525;SDS011;13424;48.424;11.258;2023-12-20T00:02:15;4.00;;;3.20;;
25525;SDS011;13424;48.424;11.258;2023-12-20T00:04:42;5.40;;;3.53;;
25525;SDS011;13424;48.424;11.258;2023-12-20T00:07:08;3.28;;;2.70;;
25525;SDS011;13424;48.424;11.258;2023-12-20T00:09:34;4.28;;;3.60;;
25525;SDS011;13424;48.424;11.258;2023-12-20T00:12:00;4.43;;;3.00;;
25525;SDS011;13424;48.424;11.258;2023-12-20T00:14:26;4.68;;;3.33;;
25525;SDS011;13424;48.424;11.258;2023-12-20T00:16:52;5.53;;;3.33;;
25525;SDS011;13424;48.424;11.258;2023-12-20T00:19:18;4.63;;;3.08;;
25525;SDS011;13424;48.424;11.258;2023-12-20T00:21:44;5.38;;;3.45;;
25525;SDS011;13424;48.424;11.258;2023-12-20T00:24:10;5.05;;;3.30;;
25525;SDS011;13424;48.424;11.258;2023-12-20T00:26:36;5.10;;;3.92;;
25525;SDS011;13424;48.424;11.258;2023-12-20T00:29:02;4.05;;;3.10;;
25525;SDS011;13424;48.424;11.258;2023-12-20T00:31:28;5.72;;;3.38;;
25525;SDS011;13424;48.424;11.258;2023-12-20T00:33:54;4.13;;;3.20;;
25525;SDS011;13424;48.424;11.258;2023-12-20T00:36:23;5.30;;;3.38;;
25525;SDS011;13424;48.424;11.258;2023-12-20T00:38:49;6.65;;;3.30;;
25525;SDS011;13424;48.424;11.258;2023-12-20T00:41:16;4.97;;;3.58;;
25525;SDS011;13424;48.424;11.258;2023-12-20T00:43:42;4.55;;;3.42;;
25525;SDS011;13424;48.424;11.258;2023-12-20T00:46:09;5.03;;;3.63;;
25525;SDS011;13424;48.424;11.258;2023-12-20T00:48:35;8.32;;;3.83;;
25525;SDS011;13424;48.424;11.258;2023-12-20T00:51:01;4.07;;;3.05;;
25525;SDS011;13424;48.424;11.258;2023-12-20T00:53:29;5.97;;;3.65;;
25525;SDS011;13424;48.424;11.258;2023-12-20T00:55:55;5.10;;;3.40;;
25525;SDS011;13424;48.424;11.258;2023-12-20T00:58:21;4.22;;;3.40;;
25525;SDS011;13424;48.424;11.258;2023-12-20T01:00:47;5.35;;;3.80;;
25525;SDS011;13424;48.424;11.258;2023-12-20T01:03:13;7.60;;;4.00;;
25525;SDS011;13424;48.424;11.258;2023-12-20T01:05:40;5.85;;;4.00;;
25525;SDS011;13424;48.424;11.258;2023-12-20T01:08:06;5.38;;;4.03;;
25525;SDS011;13424;48.424;11.258;2023-12-20T01:10:32;5.28;;;3.72;;
25525;SDS011;13424;48.424;11.258;2023-12-20T01:13:07;5.78;;;4.05;;
25525;SDS011;13424;48.424;11.258;2023-12-20T01:15:34;4.95;;;4.32;;
25525;SDS011;13424;48.424;11.258;2023-12-20T01:18:00;5.50;;;4.15;;
25525;SDS011;13424;48.424;11.258;2023-12-20T01:20:26;6.63;;;4.25;;
25525;SDS011;13424;48.424;11.258;2023-12-20T01:22:52;7.60;;;4.05;;
25525;SDS011;13424;48.424;11.258;2023-12-20T01:25:18;7.22;;;4.13;;
25525;SDS011;13424;48.424;11.258;2023-12-20T01:27:44;6.25;;;4.40;;
25525;SDS011;13424;48.424;11.258;2023-12-20T01:30:10;7.72;;;4.00;;
25525;SDS011;13424;48.424;11.258;2023-12-20T01:32:37;5.93;;;4.47;;
25525;SDS011;13424;48.424;11.258;2023-12-20T01:35:03;5.13;;;4.20;;
25525;SDS011;13424;48.424;11.258;2023-12-20T01:37:30;4.95;;;3.67;;
25525;SDS011;13424;48.424;11.258;2023-12-20T01:39:56;5.45;;;3.40;;
25525;SDS011;13424;48.424;11.258;2023-12-20T01:42:22;6.18;;;3.63;;
25525;SDS011;13424;48.424;11.258;2023-12-20T01:44:48;4.93;;;3.63;;
25525;SDS011;13424;48.424;11.258;2023-12-20T01:47:14;6.75;;;3.38;;
25525;SDS011;13424;48.424;11.258;2023-12-20T01:49:40;4.25;;;3.50;;
25525;SDS011;13424;48.424;11.258;2023-12-20T01:52:06;5.90;;;3.88;;
25525;SDS011;13424;48.424;11.258;2023-12-20T01:54:33;3.85;;;3.30;;
25525;SDS011;13424;48.424;11.258;2023-12-20T01:57:01;5.45;;;3.75;;
25525;SDS011;13424;48.424;11.258;2023-12-20T01:59:28;5.07;;;3.30;;
25525;SDS011;13424;48.424;11.258;2023-12-20T02:01:54;3.30;;;2.88;;
25525;SDS011;13424;48.424;11.258;2023-12-20T02:04:21;6.13;;;3.65;;
25525;SDS011;13424;48.424;11.258;2023-12-20T02:06:47;4.15;;;3.08;;
25525;SDS011;13424;48.424;11.258;2023-12-20T02:09:54;3.40;;;2.90;;
25525;SDS011;13424;48.424;11.258;2023-12-20T02:12:21;3.95;;;2.83;;
25525;SDS011;13424;48.424;11.258;2023-12-20T02:14:48;9.43;;;3.45;;
25525;SDS011;13424;48.424;11.258;2023-12-20T02:17:15;4.85;;;3.13;;
25525;SDS011;13424;48.424;11.258;2023-12-20T02:19:42;3.97;;;3.10;;
25525;SDS011;13424;48.424;11.258;2023-12-20T02:22:09;4.13;;;3.00;;
25525;SDS011;13424;48.424;11.258;2023-12-20T02:24:36;3.85;;;2.88;;
25525;SDS011;13424;48.424;11.258;2023-12-20T02:27:03;5.03;;;3.00;;
25525;SDS011;13424;48.424;11.258;2023-12-20T02:29:35;3.30;;;3.00;;
25525;SDS011;13424;48.424;11.258;2023-12-20T02:32:02;3.45;;;3.10;;
25525;SDS011;13424;48.424;11.258;2023-12-20T02:34:28;3.10;;;2.78;;
25525;SDS011;13424;48.424;11.258;2023-12-20T02:36:54;4.40;;;3.05;;
25525;SDS011;13424;48.424;11.258;2023-12-20T02:39:22;5.75;;;3.30;;
25525;SDS011;13424;48.424;11.258;2023-12-20T02:41:48;3.53;;;3.15;;
25525;SDS011;13424;48.424;11.258;2023-12-20T02:44:14;4.03;;;3.10;;
25525;SDS011;13424;48.424;11.258;2023-12-20T02:46:40;5.65;;;3.45;;
25525;SDS011;13424;48.424;11.258;2023-12-20T02:49:07;4.30;;;3.78;;
25525;SDS011;13424;48.424;11.258;2023-12-20T02:51:33;4.18;;;3.10;;
25525;SDS011;13424;48.424;11.258;2023-12-20T02:53:59;5.60;;;3.45;;
25525;SDS011;13424;48.424;11.258;2023-12-20T02:56:25;4.18;;;3.00;;
25525;SDS011;13424;48.424;11.258;2023-12-20T02:58:51;4.53;;;3.13;;
25525;SDS011;13424;48.424;11.258;2023-12-20T03:01:17;3.88;;;2.90;;
25525;SDS011;13424;48.424;11.258;2023-12-20T03:03:43;4.40;;;2.92;;
25525;SDS011;13424;48.424;11.258;2023-12-20T03:06:09;4.50;;;3.38;;
25525;SDS011;13424;48.424;11.258;2023-12-20T03:08:35;5.00;;;3.38;;
25525;SDS011;13424;48.424;11.258;2023-12-20T03:11:01;4.15;;;3.03;;
25525;SDS011;13424;48.424;11.258;2023-12-20T03:13:27;3.95;;;3.40;;
25525;SDS011;13424;48.424;11.258;2023-12-20T03:15:53;4.90;;;3.13;;
25525;SDS011;13424;48.424;11.258;2023-12-20T03:18:19;5.18;;;3.65;;
25525;SDS011;13424;48.424;11.258;2023-12-20T03:20:45;4.75;;;3.15;;
25525;SDS011;13424;48.424;11.258;2023-12-20T03:23:12;4.57;;;2.97;;
25525;SDS011;13424;48.424;11.258;2023-12-20T03:25:38;3.42;;;3.13;;
25525;SDS011;13424;48.424;11.258;2023-12-20T03:28:04;6.10;;;3.20;;
25525;SDS011;13424;48.424;11.258;2023-12-20T03:30:31;6.20;;;3.22;;
25525;SDS011;13424;48.424;11.258;2023-12-20T03:32:57;4.60;;;3.25;;
25525;SDS011;13424;48.424;11.258;2023-12-20T03:35:23;5.05;;;3.58;;
25525;SDS011;13424;48.424;11.258;2023-12-20T03:37:49;4.07;;;3.33;;
25525;SDS011;13424;48.424;11.258;2023-12-20T03:40:15;4.45;;;3.40;;
25525;SDS011;13424;48.424;11.258;2023-12-20T03:42:41;5.13;;;3.67;;
25525;SDS011;13424;48.424;11.258;2023-12-20T03:45:07;4.95;;;3.67;;
25525;SDS011;13424;48.424;11.258;2023-12-20T03:47:34;4.18;;;3.58;;
25525;SDS011;13424;48.424;11.258;2023-12-20T03:50:00;5.35;;;3.90;;
25525;SDS011;13424;48.424;11.258;2023-12-20T03:52:26;5.00;;;3.72;;
25525;SDS011;13424;48.424;11.258;2023-12-20T03:54:52;6.68;;;4.18;;
25525;SDS011;13424;48.424;11.258;2023-12-20T03:57:18;6.88;;;4.40;;
25525;SDS011;13424;48.424;11.258;2023-12-20T03:59:44;5.65;;;3.95;;
25525;SDS011;13424;48.424;11.258;2023-12-20T04:02:10;5.63;;;4.63;;
25525;SDS011;13424;48.424;11.258;2023-12-20T04:04:36;6.28;;;4.25;;
25525;SDS011;13424;48.424;11.258;2023-12-20T04:07:02;4.65;;;3.90;;
25525;SDS011;13424;48.424;11.258;2023-12-20T04:09:28;4.45;;;4.00;;
25525;SDS011;13424;48.424;11.258;2023-12-20T04:11:54;6.15;;;4.50;;
25525;SDS011;13424;48.424;11.258;2023-12-20T04:14:21;7.45;;;4.43;;
25525;SDS011;13424;48.424;11.258;2023-12-20T04:16:47;5.72;;;4.32;;
25525;SDS011;13424;48.424;11.258;2023-12-20T04:19:13;5.95;;;4.38;;
25525;SDS011;13424;48.424;11.258;2023-12-20T04:21:39;5.15;;;3.83;;
25525;SDS011;13424;48.424;11.258;2023-12-20T04:28:04;5.90;;;4.75;;
25525;SDS011;13424;48.424;11.258;2023-12-20T04:30:30;6.18;;;4.90;;
25525;SDS011;13424;48.424;11.258;2023-12-20T04:32:56;6.13;;;4.72;;
25525;SDS011;13424;48.424;11.258;2023-12-20T04:35:22;8.25;;;5.55;;
25525;SDS011;13424;48.424;11.258;2023-12-20T04:37:48;9.13;;;5.35;;
25525;SDS011;13424;48.424;11.258;2023-12-20T04:40:15;8.93;;;5.85;;
25525;SDS011;13424;48.424;11.258;2023-12-20T04:42:41;7.45;;;5.45;;
25525;SDS011;13424;48.424;11.258;2023-12-20T04:45:07;7.95;;;4.82;;
25525;SDS011;13424;48.424;11.258;2023-12-20T04:47:33;7.75;;;5.22;;
25525;SDS011;13424;48.424;11.258;2023-12-20T04:53:53;7.53;;;5.15;;
25525;SDS011;13424;48.424;11.258;2023-12-20T04:56:19;6.20;;;4.63;;
25525;SDS011;13424;48.424;11.258;2023-12-20T04:58:45;6.93;;;5.43;;
25525;SDS011;13424;48.424;11.258;2023-12-20T05:01:12;7.72;;;5.65;;
25525;SDS011;13424;48.424;11.258;2023-12-20T05:03:38;7.82;;;5.97;;
25525;SDS011;13424;48.424;11.258;2023-12-20T05:06:04;9.68;;;5.78;;
25525;SDS011;13424;48.424;11.258;2023-12-20T05:08:30;11.38;;;6.10;;
25525;SDS011;13424;48.424;11.258;2023-12-20T05:10:56;10.13;;;5.90;;
25525;SDS011;13424;48.424;11.258;2023-12-20T05:13:22;9.45;;;5.30;;
25525;SDS011;13424;48.424;11.258;2023-12-20T05:15:48;7.20;;;5.93;;
25525;SDS011;13424;48.424;11.258;2023-12-20T05:18:14;9.20;;;6.18;;
25525;SDS011;13424;48.424;11.258;2023-12-20T05:20:40;8.38;;;5.93;;
25525;SDS011;13424;48.424;11.258;2023-12-20T05:23:06;9.75;;;6.78;;
25525;SDS011;13424;48.424;11.258;2023-12-20T05:25:33;7.03;;;5.30;;
25525;SDS011;13424;48.424;11.258;2023-12-20T05:27:59;7.30;;;5.38;;
25525;SDS011;13424;48.424;11.258;2023-12-20T05:34:16;6.35;;;4.20;;
25525;SDS011;13424;48.424;11.258;2023-12-20T05:36:42;5.97;;;5.13;;
25525;SDS011;13424;48.424;11.258;2023-12-20T05:39:08;7.68;;;4.45;;
25525;SDS011;13424;48.424;11.258;2023-12-20T05:41:34;5.63;;;4.45;;
25525;SDS011;13424;48.424;11.258;2023-12-20T05:44:00;8.65;;;5.20;;
25525;SDS011;13424;48.424;11.258;2023-12-20T05:46:26;5.95;;;4.32;;
25525;SDS011;13424;48.424;11.258;2023-12-20T05:48:52;8.48;;;4.13;;
25525;SDS011;13424;48.424;11.258;2023-12-20T05:51:18;7.18;;;4.95;;
25525;SDS011;13424;48.424;11.258;2023-12-20T05:53:44;9.57;;;4.95;;
25525;SDS011;13424;48.424;11.258;2023-12-20T05:56:10;7.63;;;4.70;;
25525;SDS011;13424;48.424;11.258;2023-12-20T05:58:38;6.95;;;4.78;;
25525;SDS011;13424;48.424;11.258;2023-12-20T06:01:05;5.53;;;4.72;;
25525;SDS011;13424;48.424;11.258;2023-12-20T06:07:02;5.30;;;4.13;;
25525;SDS011;13424;48.424;11.258;2023-12-20T06:09:28;5.43;;;4.20;;
25525;SDS011;13424;48.424;11.258;2023-12-20T06:11:54;4.63;;;3.63;;
25525;SDS011;13424;48.424;11.258;2023-12-20T06:14:21;6.60;;;4.13;;
25525;SDS011;13424;48.424;11.258;2023-12-20T06:16:47;6.05;;;3.85;;
25525;SDS011;13424;48.424;11.258;2023-12-20T06:19:13;5.97;;;3.70;;
25525;SDS011;13424;48.424;11.258;2023-12-20T06:21:39;4.60;;;3.45;;
25525;SDS011;13424;48.424;11.258;2023-12-20T06:24:05;5.88;;;4.25;;
25525;SDS011;13424;48.424;11.258;2023-12-20T06:26:31;4.82;;;3.92;;
25525;SDS011;13424;48.424;11.258;2023-12-20T06:28:57;4.43;;;3.92;;
25525;SDS011;13424;48.424;11.258;2023-12-20T06:31:23;5.47;;;4.22;;
25525;SDS011;13424;48.424;11.258;2023-12-20T06:33:49;4.97;;;4.32;;
25525;SDS011;13424;48.424;11.258;2023-12-20T06:36:25;6.80;;;4.20;;
25525;SDS011;13424;48.424;11.258;2023-12-20T06:38:52;4.57;;;3.38;;
25525;SDS011;13424;48.424;11.258;2023-12-20T06:41:18;6.20;;;4.22;;
25525;SDS011;13424;48.424;11.258;2023-12-20T06:43:44;6.18;;;3.88;;
25525;SDS011;13424;48.424;11.258;2023-12-20T06:46:10;6.55;;;4.20;;
25525;SDS011;13424;48.424;11.258;2023-12-20T06:48:38;6.25;;;4.80;;
25525;SDS011;13424;48.424;11.258;2023-12-20T06:51:05;7.25;;;4.47;;
25525;SDS011;13424;48.424;11.258;2023-12-20T06:53:31;6.80;;;4.40;;
25525;SDS011;13424;48.424;11.258;2023-12-20T06:55:57;7.45;;;4.85;;
25525;SDS011;13424;48.424;11.258;2023-12-20T06:58:24;6.50;;;5.13;;
25525;SDS011;13424;48.424;11.258;2023-12-20T07:00:50;5.30;;;4.45;;
25525;SDS011;13424;48.424;11.258;2023-12-20T07:03:17;7.25;;;5.47;;
25525;SDS011;13424;48.424;11.258;2023-12-20T07:05:43;7.25;;;4.82;;
25525;SDS011;13424;48.424;11.258;2023-12-20T07:08:10;9.55;;;5.47;;
25525;SDS011;13424;48.424;11.258;2023-12-20T07:10:36;8.10;;;5.88;;
25525;SDS011;13424;48.424;11.258;2023-12-20T07:13:02;8.70;;;6.22;;
25525;SDS011;13424;48.424;11.258;2023-12-20T07:15:29;6.85;;;5.78;;
25525;SDS011;13424;48.424;11.258;2023-12-20T07:17:55;11.50;;;6.90;;
25525;SDS011;13424;48.424;11.258;2023-12-20T07:20:21;9.55;;;7.13;;
25525;SDS011;13424;48.424;11.258;2023-12-20T07:23:15;8.15;;;6.35;;
25525;SDS011;13424;48.424;11.258;2023-12-20T07:25:41;10.02;;;6.80;;
25525;SDS011;13424;48.424;11.258;2023-12-20T07:28:07;11.32;;;7.75;;
25525;SDS011;13424;48.424;11.258;2023-12-20T07:30:33;11.02;;;7.30;;
25525;SDS011;13424;48.424;11.258;2023-12-20T07:32:59;17.02;;;8.70;;
25525;SDS011;13424;48.424;11.258;2023-12-20T07:35:26;11.35;;;7.30;;
25525;SDS011;13424;48.424;11.258;2023-12-20T07:37:52;11.98;;;7.30;;
25525;SDS011;13424;48.424;11.258;2023-12-20T07:40:18;12.25;;;8.13;;
25525;SDS011;13424;48.424;11.258;2023-12-20T07:42:44;11.88;;;8.05;;
25525;SDS011;13424;48.424;11.258;2023-12-20T07:45:10;12.63;;;8.25;;
25525;SDS011;13424;48.424;11.258;2023-12-20T07:47:37;15.70;;;9.57;;
25525;SDS011;13424;48.424;11.258;2023-12-20T07:50:03;12.50;;;8.88;;
25525;SDS011;13424;48.424;11.258;2023-12-20T07:52:30;15.05;;;9.48;;
25525;SDS011;13424;48.424;11.258;2023-12-20T07:54:56;15.45;;;10.68;;
25525;SDS011;13424;48.424;11.258;2023-12-20T07:57:22;15.65;;;9.82;;
25525;SDS011;13424;48.424;11.258;2023-12-20T07:59:48;18.33;;;10.15;;
25525;SDS011;13424;48.424;11.258;2023-12-20T08:02:14;13.20;;;9.40;;
25525;SDS011;13424;48.424;11.258;2023-12-20T08:04:40;15.77;;;9.85;;
25525;SDS011;13424;48.424;11.258;2023-12-20T08:07:06;13.40;;;9.43;;
25525;SDS011;13424;48.424;11.258;2023-12-20T08:09:33;16.58;;;11.65;;
25525;SDS011;13424;48.424;11.258;2023-12-20T08:12:01;16.90;;;11.10;;
25525;SDS011;13424;48.424;11.258;2023-12-20T08:14:28;18.00;;;11.38;;
25525;SDS011;13424;48.424;11.258;2023-12-20T08:16:54;18.15;;;12.07;;
25525;SDS011;13424;48.424;11.258;2023-12-20T08:19:20;13.43;;;9.60;;
25525;SDS011;13424;48.424;11.258;2023-12-20T08:21:46;15.20;;;11.10;;
25525;SDS011;13424;48.424;11.258;2023-12-20T08:24:12;14.95;;;10.98;;
25525;SDS011;13424;48.424;11.258;2023-12-20T08:26:38;14.25;;;10.20;;
25525;SDS011;13424;48.424;11.258;2023-12-20T08:29:04;14.35;;;10.25;;
25525;SDS011;13424;48.424;11.258;2023-12-20T08:31:30;15.90;;;10.25;;
25525;SDS011;13424;48.424;11.258;2023-12-20T08:33:56;13.80;;;9.93;;
25525;SDS011;13424;48.424;11.258;2023-12-20T08:36:22;18.38;;;10.77;;
25525;SDS011;13424;48.424;11.258;2023-12-20T08:38:49;15.32;;;9.98;;
25525;SDS011;13424;48.424;11.258;2023-12-20T08:41:16;15.35;;;9.73;;
25525;SDS011;13424;48.424;11.258;2023-12-20T08:43:43;14.13;;;8.82;;
25525;SDS011;13424;48.424;11.258;2023-12-20T08:46:14;13.23;;;9.13;;
25525;SDS011;13424;48.424;11.258;2023-12-20T08:48:40;14.15;;;8.65;;
25525;SDS011;13424;48.424;11.258;2023-12-20T08:51:06;13.45;;;9.02;;
25525;SDS011;13424;48.424;11.258;2023-12-20T08:53:34;14.40;;;9.20;;
25525;SDS011;13424;48.424;11.258;2023-12-20T08:56:00;14.68;;;9.32;;
25525;SDS011;13424;48.424;11.258;2023-12-20T08:58:27;9.48;;;7.60;;
25525;SDS011;13424;48.424;11.258;2023-12-20T09:00:54;12.40;;;8.55;;
25525;SDS011;13424;48.424;11.258;2023-12-20T09:03:20;12.20;;;7.75;;
25525;SDS011;13424;48.424;11.258;2023-12-20T09:05:46;9.60;;;7.28;;
25525;SDS011;13424;48.424;11.258;2023-12-20T09:08:12;8.85;;;7.13;;
25525;SDS011;13424;48.424;11.258;2023-12-20T09:10:38;11.13;;;7.85;;
25525;SDS011;13424;48.424;11.258;2023-12-20T09:13:04;9.43;;;7.53;;
25525;SDS011;13424;48.424;11.258;2023-12-20T09:15:30;11.63;;;7.65;;
25525;SDS011;13424;48.424;11.258;2023-12-20T09:17:59;9.60;;;7.25;;
25525;SDS011;13424;48.424;11.258;2023-12-20T09:20:51;10.82;;;7.45;;
25525;SDS011;13424;48.424;11.258;2023-12-20T09:23:17;12.43;;;7.70;;
25525;SDS011;13424;48.424;11.258;2023-12-20T09:25:43;12.15;;;8.07;;
25525;SDS011;13424;48.424;11.258;2023-12-20T09:28:09;9.10;;;6.57;;
25525;SDS011;13424;48.424;11.258;2023-12-20T09:30:36;8.77;;;7.05;;
25525;SDS011;13424;48.424;11.258;2023-12-20T09:33:05;10.80;;;7.05;;
25525;SDS011;13424;48.424;11.258;2023-12-20T09:35:32;9.13;;;6.32;;
25525;SDS011;13424;48.424;11.258;2023-12-20T09:37:58;9.43;;;6.88;;
25525;SDS011;13424;48.424;11.258;2023-12-20T09:40:26;9.80;;;6.53;;
25525;SDS011;13424;48.424;11.258;2023-12-20T09:42:57;11.40;;;7.80;;
25525;SDS011;13424;48.424;11.258;2023-12-20T09:45:24;8.32;;;6.47;;
25525;SDS011;13424;48.424;11.258;2023-12-20T09:47:51;8.77;;;6.15;;
25525;SDS011;13424;48.424;11.258;2023-12-20T09:50:20;7.80;;;6.13;;
25525;SDS011;13424;48.424;11.258;2023-12-20T09:52:52;9.27;;;6.10;;
25525;SDS011;13424;48.424;11.258;2023-12-20T09:55:21;7.28;;;6.28;;
25525;SDS011;13424;48.424;11.258;2023-12-20T09:57:48;8.48;;;6.35;;
25525;SDS011;13424;48.424;11.258;2023-12-20T10:00:15;11.40;;;6.45;;
25525;SDS011;13424;48.424;11.258;2023-12-20T10:03:06;9.60;;;6.68;;
25525;SDS011;13424;48.424;11.258;2023-12-20T10:05:33;9.23;;;6.25;;
25525;SDS011;13424;48.424;11.258;2023-12-20T10:08:00;7.32;;;5.65;;
25525;SDS011;13424;48.424;11.258;2023-12-20T10:10:27;7.68;;;5.22;;
25525;SDS011;13424;48.424;11.258;2023-12-20T10:13:06;6.47;;;5.35;;
25525;SDS011;13424;48.424;11.258;2023-12-20T10:15:35;8.30;;;5.75;;
25525;SDS011;13424;48.424;11.258;2023-12-20T10:18:02;8.02;;;5.68;;
25525;SDS011;13424;48.424;11.258;2023-12-20T10:20:30;8.02;;;5.60;;
25525;SDS011;13424;48.424;11.258;2023-12-20T10:22:57;7.25;;;5.28;;
25525;SDS011;13424;48.424;11.258;2023-12-20T10:25:24;6.80;;;4.85;;
25525;SDS011;13424;48.424;11.258;2023-12-20T10:28:18;5.68;;;4.88;;
25525;SDS011;13424;48.424;11.258;2023-12-20T10:30:46;7.63;;;4.72;;
25525;SDS011;13424;48.424;11.258;2023-12-20T10:33:12;7.45;;;4.78;;
25525;SDS011;13424;48.424;11.258;2023-12-20T10:35:39;6.68;;;5.28;;
25525;SDS011;13424;48.424;11.258;2023-12-20T10:38:06;8.57;;;6.32;;
25525;SDS011;13424;48.424;11.258;2023-12-20T10:40:36;11.13;;;4.82;;
25525;SDS011;13424;48.424;11.258;2023-12-20T10:43:02;7.25;;;5.07;;
25525;SDS011;13424;48.424;11.258;2023-12-20T10:45:29;6.55;;;5.00;;
25525;SDS011;13424;48.424;11.258;2023-12-20T10:47:55;5.80;;;4.50;;
25525;SDS011;13424;48.424;11.258;2023-12-20T10:50:24;5.80;;;4.20;;
25525;SDS011;13424;48.424;11.258;2023-12-20T10:52:51;6.22;;;4.55;;
25525;SDS011;13424;48.424;11.258;2023-12-20T10:55:24;5.57;;;4.30;;
25525;SDS011;13424;48.424;11.258;2023-12-20T10:57:51;4.50;;;3.80;;
25525;SDS011;13424;48.424;11.258;2023-12-20T11:00:21;4.50;;;3.45;;
25525;SDS011;13424;48.424;11.258;2023-12-20T11:02:49;5.68;;;4.57;;
25525;SDS011;13424;48.424;11.258;2023-12-20T11:09:14;5.32;;;3.65;;
25525;SDS011;13424;48.424;11.258;2023-12-20T11:15:01;5.25;;;4.15;;
25525;SDS011;13424;48.424;11.258;2023-12-20T11:17:29;5.13;;;4.00;;
25525;SDS011;13424;48.424;11.258;2023-12-20T11:22:27;4.32;;;3.65;;
25525;SDS011;13424;48.424;11.258;2023-12-20T11:28:35;5.72;;;3.70;;
25525;SDS011;13424;48.424;11.258;2023-12-20T11:31:01;4.68;;;3.72;;
25525;SDS011;13424;48.424;11.258;2023-12-20T11:33:36;4.88;;;3.78;;
25525;SDS011;13424;48.424;11.258;2023-12-20T11:36:03;3.60;;;3.30;;
25525;SDS011;13424;48.424;11.258;2023-12-20T11:39:00;4.88;;;4.05;;
25525;SDS011;13424;48.424;11.258;2023-12-20T11:43:57;5.38;;;3.17;;
25525;SDS011;13424;48.424;11.258;2023-12-20T11:46:25;3.60;;;3.20;;
25525;SDS011;13424;48.424;11.258;2023-12-20T11:48:51;4.05;;;3.55;;
25525;SDS011;13424;48.424;11.258;2023-12-20T11:51:17;3.75;;;3.38;;
25525;SDS011;13424;48.424;11.258;2023-12-20T11:53:43;4.18;;;3.78;;
25525;SDS011;13424;48.424;11.258;2023-12-20T11:56:09;3.75;;;3.08;;
25525;SDS011;13424;48.424;11.258;2023-12-20T11:58:36;5.50;;;3.42;;
25525;SDS011;13424;48.424;11.258;2023-12-20T12:01:02;4.32;;;3.20;;
25525;SDS011;13424;48.424;11.258;2023-12-20T12:03:29;3.20;;;2.90;;
25525;SDS011;13424;48.424;11.258;2023-12-20T12:05:55;3.45;;;2.60;;
25525;SDS011;13424;48.424;11.258;2023-12-20T12:08:22;5.68;;;2.83;;
25525;SDS011;13424;48.424;11.258;2023-12-20T12:10:49;3.28;;;2.97;;
25525;SDS011;13424;48.424;11.258;2023-12-20T12:13:15;3.03;;;2.55;;
25525;SDS011;13424;48.424;11.258;2023-12-20T12:15:41;4.97;;;2.60;;
25525;SDS011;13424;48.424;11.258;2023-12-20T12:18:08;3.78;;;2.30;;
25525;SDS011;13424;48.424;11.258;2023-12-20T12:20:34;2.72;;;2.30;;
25525;SDS011;13424;48.424;11.258;2023-12-20T12:23:01;2.53;;;2.20;;
25525;SDS011;13424;48.424;11.258;2023-12-20T12:25:34;5.93;;;2.85;;
25525;SDS011;13424;48.424;11.258;2023-12-20T12:30:41;5.50;;;2.63;;
25525;SDS011;13424;48.424;11.258;2023-12-20T12:33:07;4.32;;;2.88;;
25525;SDS011;13424;48.424;11.258;2023-12-20T12:35:33;3.80;;;2.42;;
25525;SDS011;13424;48.424;11.258;2023-12-20T12:38:00;3.22;;;2.70;;
25525;SDS011;13424;48.424;11.258;2023-12-20T12:40:28;3.50;;;2.75;;
25525;SDS011;13424;48.424;11.258;2023-12-20T12:42:55;5.07;;;2.83;;
25525;SDS011;13424;48.424;11.258;2023-12-20T12:45:21;11.73;;;4.10;;
25525;SDS011;13424;48.424;11.258;2023-12-20T12:47:47;5.57;;;3.95;;
25525;SDS011;13424;48.424;11.258;2023-12-20T12:50:13;5.50;;;2.90;;
25525;SDS011;13424;48.424;11.258;2023-12-20T12:52:39;6.63;;;3.65;;
25525;SDS011;13424;48.424;11.258;2023-12-20T12:55:05;6.38;;;3.08;;
25525;SDS011;13424;48.424;11.258;2023-12-20T12:57:32;4.78;;;3.20;;
25525;SDS011;13424;48.424;11.258;2023-12-20T12:59:59;4.68;;;2.83;;
25525;SDS011;13424;48.424;11.258;2023-12-20T13:02:25;7.35;;;3.20;;
25525;SDS011;13424;48.424;11.258;2023-12-20T13:04:51;5.38;;;3.28;;
25525;SDS011;13424;48.424;11.258;2023-12-20T13:07:17;3.15;;;2.80;;
25525;SDS011;13424;48.424;11.258;2023-12-20T13:09:43;8.15;;;3.58;;
25525;SDS011;13424;48.424;11.258;2023-12-20T13:12:09;2.65;;;2.45;;
25525;SDS011;13424;48.424;11.258;2023-12-20T13:14:35;5.20;;;3.05;;
25525;SDS011;13424;48.424;11.258;2023-12-20T13:17:06;4.13;;;3.38;;
25525;SDS011;13424;48.424;11.258;2023-12-20T13:19:32;5.93;;;2.72;;
25525;SDS011;13424;48.424;11.258;2023-12-20T13:21:58;4.82;;;2.85;;
25525;SDS011;13424;48.424;11.258;2023-12-20T13:24:24;8.00;;;2.60;;
25525;SDS011;13424;48.424;11.258;2023-12-20T13:26:50;6.88;;;3.47;;
25525;SDS011;13424;48.424;11.258;2023-12-20T13:29:48;5.70;;;2.28;;
25525;SDS011;13424;48.424;11.258;2023-12-20T13:32:14;5.28;;;2.22;;
25525;SDS011;13424;48.424;11.258;2023-12-20T13:34:40;4.07;;;2.30;;
25525;SDS011;13424;48.424;11.258;2023-12-20T13:37:06;3.80;;;2.17;;
25525;SDS011;13424;48.424;11.258;2023-12-20T13:39:32;7.00;;;2.53;;
25525;SDS011;13424;48.424;11.258;2023-12-20T13:41:58;6.72;;;2.28;;
25525;SDS011;13424;48.424;11.258;2023-12-20T13:47:37;4.32;;;2.13;;
25525;SDS011;13424;48.424;11.258;2023-12-20T13:50:04;4.03;;;3.20;;
25525;SDS011;13424;48.424;11.258;2023-12-20T13:52:30;5.10;;;1.95;;
25525;SDS011;13424;48.424;11.258;2023-12-20T13:54:56;4.10;;;2.00;;
25525;SDS011;13424;48.424;11.258;2023-12-20T13:57:22;2.33;;;2.03;;
25525;SDS011;13424;48.424;11.258;2023-12-20T13:59:48;4.20;;;2.13;;
25525;SDS011;13424;48.424;11.258;2023-12-20T14:02:15;4.82;;;1.90;;
25525;SDS011;13424;48.424;11.258;2023-12-20T14:04:41;6.40;;;2.13;;
25525;SDS011;13424;48.424;11.258;2023-12-20T14:07:08;3.90;;;2.03;;
25525;SDS011;13424;48.424;11.258;2023-12-20T14:09:35;2.15;;;1.70;;
25525;SDS011;13424;48.424;11.258;2023-12-20T14:12:01;4.32;;;2.30;;
25525;SDS011;13424;48.424;11.258;2023-12-20T14:14:27;6.47;;;2.63;;
25525;SDS011;13424;48.424;11.258;2023-12-20T14:16:53;2.80;;;1.63;;
25525;SDS011;13424;48.424;11.258;2023-12-20T14:19:19;4.38;;;2.13;;
25525;SDS011;13424;48.424;11.258;2023-12-20T14:21:45;6.75;;;2.17;;
25525;SDS011;13424;48.424;11.258;2023-12-20T14:24:14;2.47;;;1.88;;
25525;SDS011;13424;48.424;11.258;2023-12-20T14:26:41;4.95;;;1.83;;
25525;SDS011;13424;48.424;11.258;2023-12-20T14:29:07;10.25;;;1.90;;
25525;SDS011;13424;48.424;11.258;2023-12-20T14:31:33;3.60;;;1.77;;
25525;SDS011;13424;48.424;11.258;2023-12-20T14:33:59;7.43;;;1.90;;
25525;SDS011;13424;48.424;11.258;2023-12-20T14:36:29;5.93;;;2.13;;
25525;SDS011;13424;48.424;11.258;2023-12-20T14:38:56;7.22;;;1.90;;
25525;SDS011;13424;48.424;11.258;2023-12-20T14:44:39;4.80;;;2.00;;
25525;SDS011;13424;48.424;11.258;2023-12-20T14:47:06;7.95;;;2.08;;
25525;SDS011;13424;48.424;11.258;2023-12-20T14:49:32;3.35;;;1.85;;
25525;SDS011;13424;48.424;11.258;2023-12-20T14:55:12;4.97;;;2.28;;
25525;SDS011;13424;48.424;11.258;2023-12-20T14:57:41;4.97;;;2.13;;
25525;SDS011;13424;48.424;11.258;2023-12-20T15:00:07;6.63;;;2.30;;
25525;SDS011;13424;48.424;11.258;2023-12-20T15:02:33;4.20;;;2.40;;
25525;SDS011;13424;48.424;11.258;2023-12-20T15:05:00;4.32;;;1.63;;
25525;SDS011;13424;48.424;11.258;2023-12-20T15:07:26;5.28;;;1.98;;
25525;SDS011;13424;48.424;11.258;2023-12-20T15:09:52;5.70;;;1.90;;
25525;SDS011;13424;48.424;11.258;2023-12-20T15:12:18;3.30;;;1.60;;
25525;SDS011;13424;48.424;11.258;2023-12-20T15:14:53;3.05;;;2.00;;